sensor_id;sensor_type;location;lat;lon;timestamp;temperature;humidity
20174;DHT22;10246;50.620;7.232;2023-12-14T00:01:12;7.00;30.10
20174;DHT22;10246;50.620;7.232;2023-12-14T00:03:39;7.00;30.30
20174;DHT22;10246;50.620;7.232;2023-12-14T00:06:07;7.00;30.10
20174;DHT22;10246;50.620;7.232;2023-12-14T00:08:35;7.00;30.20
20174;DHT22;10246;50.620;7.232;2023-12-14T00:11:03;7.00;30.10
20174;DHT22;10246;50.620;7.232;2023-12-14T00:13:30;7.00;30.10
20174;DHT22;10246;50.620;7.232;2023-12-14T00:15:57;7.10;30.10
20174;DHT22;10246;50.620;7.232;2023-12-14T00:18:24;7.10;29.70
20174;DHT22;10246;50.620;7.232;2023-12-14T00:20:51;7.00;29.90
20174;DHT22;10246;50.620;7.232;2023-12-14T00:23:18;7.00;30.10
20174;DHT22;10246;50.620;7.232;2023-12-14T00:25:46;7.10;30.30
20174;DHT22;10246;50.620;7.232;2023-12-14T00:28:13;7.00;30.00
20174;DHT22;10246;50.620;7.232;2023-12-14T00:30:39;7.10;30.10
20174;DHT22;10246;50.620;7.232;2023-12-14T00:33:06;7.10;30.00
20174;DHT22;10246;50.620;7.232;2023-12-14T00:35:33;7.10;30.50
20174;DHT22;10246;50.620;7.232;2023-12-14T00:38:00;7.10;30.30
20174;DHT22;10246;50.620;7.232;2023-12-14T00:40:27;7.10;30.20
20174;DHT22;10246;50.620;7.232;2023-12-14T00:42:55;7.10;30.20
20174;DHT22;10246;50.620;7.232;2023-12-14T00:45:21;7.00;30.10
20174;DHT22;10246;50.620;7.232;2023-12-14T00:47:48;7.00;30.50
20174;DHT22;10246;50.620;7.232;2023-12-14T00:50:15;7.00;30.80
20174;DHT22;10246;50.620;7.232;2023-12-14T00:52:41;7.10;30.80
20174;DHT22;10246;50.620;7.232;2023-12-14T00:55:08;7.10;30.90
20174;DHT22;10246;50.620;7.232;2023-12-14T00:57:35;7.10;30.60
20174;DHT22;10246;50.620;7.232;2023-12-14T01:00:04;7.10;30.60
20174;DHT22;10246;50.620;7.232;2023-12-14T01:02:29;7.10;30.50
20174;DHT22;10246;50.620;7.232;2023-12-14T01:04:56;7.10;30.90
20174;DHT22;10246;50.620;7.232;2023-12-14T01:07:23;7.20;31.20
20174;DHT22;10246;50.620;7.232;2023-12-14T01:09:50;7.20;31.30
20174;DHT22;10246;50.620;7.232;2023-12-14T01:12:16;7.20;31.00
20174;DHT22;10246;50.620;7.232;2023-12-14T01:14:43;7.20;31.30
20174;DHT22;10246;50.620;7.232;2023-12-14T01:17:11;7.20;31.70
20174;DHT22;10246;50.620;7.232;2023-12-14T01:19:39;7.20;31.00
20174;DHT22;10246;50.620;7.232;2023-12-14T01:22:07;7.20;31.30
20174;DHT22;10246;50.620;7.232;2023-12-14T01:24:33;7.20;31.00
20174;DHT22;10246;50.620;7.232;2023-12-14T01:27:00;7.30;31.50
20174;DHT22;10246;50.620;7.232;2023-12-14T01:29:27;7.30;31.50
20174;DHT22;10246;50.620;7.232;2023-12-14T01:31:54;7.40;31.10
20174;DHT22;10246;50.620;7.232;2023-12-14T01:34:22;7.40;30.30
20174;DHT22;10246;50.620;7.232;2023-12-14T01:36:48;7.40;30.30
20174;DHT22;10246;50.620;7.232;2023-12-14T01:39:15;7.30;30.10
20174;DHT22;10246;50.620;7.232;2023-12-14T01:41:42;7.30;30.70
20174;DHT22;10246;50.620;7.232;2023-12-14T01:44:09;7.30;31.30
20174;DHT22;10246;50.620;7.232;2023-12-14T01:46:35;7.40;32.00
20174;DHT22;10246;50.620;7.232;2023-12-14T01:49:02;7.40;32.10
20174;DHT22;10246;50.620;7.232;2023-12-14T01:51:30;7.40;32.00
20174;DHT22;10246;50.620;7.232;2023-12-14T01:53:59;7.40;32.00
20174;DHT22;10246;50.620;7.232;2023-12-14T01:56:25;7.30;32.20
20174;DHT22;10246;50.620;7.232;2023-12-14T01:58:53;7.30;32.70
20174;DHT22;10246;50.620;7.232;2023-12-14T02:01:25;7.30;33.10
20174;DHT22;10246;50.620;7.232;2023-12-14T02:03:54;7.30;33.00
20174;DHT22;10246;50.620;7.232;2023-12-14T02:06:21;7.30;33.20
20174;DHT22;10246;50.620;7.232;2023-12-14T02:08:49;7.30;33.20
20174;DHT22;10246;50.620;7.232;2023-12-14T02:11:16;7.30;33.60
20174;DHT22;10246;50.620;7.232;2023-12-14T02:13:43;7.30;33.60
20174;DHT22;10246;50.620;7.232;2023-12-14T02:16:09;7.30;33.50
20174;DHT22;10246;50.620;7.232;2023-12-14T02:18:37;7.40;34.00
20174;DHT22;10246;50.620;7.232;2023-12-14T02:21:04;7.40;33.40
20174;DHT22;10246;50.620;7.232;2023-12-14T02:23:32;7.40;33.60
20174;DHT22;10246;50.620;7.232;2023-12-14T02:25:59;7.40;33.80
20174;DHT22;10246;50.620;7.232;2023-12-14T02:28:26;7.40;33.30
20174;DHT22;10246;50.620;7.232;2023-12-14T02:30:53;7.40;33.30
20174;DHT22;10246;50.620;7.232;2023-12-14T02:33:19;7.40;33.10
20174;DHT22;10246;50.620;7.232;2023-12-14T02:35:46;7.50;33.40
20174;DHT22;10246;50.620;7.232;2023-12-14T02:38:13;7.50;32.90
20174;DHT22;10246;50.620;7.232;2023-12-14T02:40:41;7.50;32.30
20174;DHT22;10246;50.620;7.232;2023-12-14T02:43:08;7.50;32.70
20174;DHT22;10246;50.620;7.232;2023-12-14T02:45:35;7.50;32.50
20174;DHT22;10246;50.620;7.232;2023-12-14T02:48:01;7.50;33.10
20174;DHT22;10246;50.620;7.232;2023-12-14T02:50:28;7.50;33.40
20174;DHT22;10246;50.620;7.232;2023-12-14T02:52:55;7.60;33.60
20174;DHT22;10246;50.620;7.232;2023-12-14T02:55:21;7.60;33.70
20174;DHT22;10246;50.620;7.232;2023-12-14T02:57:49;7.60;33.70
20174;DHT22;10246;50.620;7.232;2023-12-14T03:00:17;7.70;33.80
20174;DHT22;10246;50.620;7.232;2023-12-14T03:02:43;7.70;32.90
20174;DHT22;10246;50.620;7.232;2023-12-14T03:05:10;7.70;32.70
20174;DHT22;10246;50.620;7.232;2023-12-14T03:07:37;7.70;32.20
20174;DHT22;10246;50.620;7.232;2023-12-14T03:10:05;7.60;32.60
20174;DHT22;10246;50.620;7.232;2023-12-14T03:12:32;7.60;32.80
20174;DHT22;10246;50.620;7.232;2023-12-14T03:15:00;7.60;33.40
20174;DHT22;10246;50.620;7.232;2023-12-14T03:17:27;7.60;34.00
20174;DHT22;10246;50.620;7.232;2023-12-14T03:19:53;7.60;34.00
20174;DHT22;10246;50.620;7.232;2023-12-14T03:22:20;7.60;34.50
20174;DHT22;10246;50.620;7.232;2023-12-14T03:24:47;7.60;34.70
20174;DHT22;10246;50.620;7.232;2023-12-14T03:27:13;7.70;34.70
20174;DHT22;10246;50.620;7.232;2023-12-14T03:29:40;7.70;33.80
20174;DHT22;10246;50.620;7.232;2023-12-14T03:32:08;7.70;34.00
20174;DHT22;10246;50.620;7.232;2023-12-14T03:34:35;7.70;33.30
20174;DHT22;10246;50.620;7.232;2023-12-14T03:37:01;7.70;34.20
20174;DHT22;10246;50.620;7.232;2023-12-14T03:39:28;7.70;34.20
20174;DHT22;10246;50.620;7.232;2023-12-14T03:41:55;7.70;34.50
20174;DHT22;10246;50.620;7.232;2023-12-14T03:44:21;7.70;34.50
20174;DHT22;10246;50.620;7.232;2023-12-14T03:46:49;7.70;34.90
20174;DHT22;10246;50.620;7.232;2023-12-14T03:49:17;7.80;34.60
20174;DHT22;10246;50.620;7.232;2023-12-14T03:51:44;7.70;34.30
20174;DHT22;10246;50.620;7.232;2023-12-14T03:54:10;7.70;34.70
20174;DHT22;10246;50.620;7.232;2023-12-14T03:56:37;7.70;34.60
20174;DHT22;10246;50.620;7.232;2023-12-14T03:59:04;7.70;34.80
20174;DHT22;10246;50.620;7.232;2023-12-14T04:01:31;7.70;35.00
20174;DHT22;10246;50.620;7.232;2023-12-14T04:03:58;7.80;35.20
20174;DHT22;10246;50.620;7.232;2023-12-14T04:06:27;7.80;35.00
20174;DHT22;10246;50.620;7.232;2023-12-14T04:08:53;7.80;35.10
20174;DHT22;10246;50.620;7.232;2023-12-14T04:11:20;7.80;35.40
20174;DHT22;10246;50.620;7.232;2023-12-14T04:13:47;7.80;35.50
20174;DHT22;10246;50.620;7.232;2023-12-14T04:16:18;7.80;35.70
20174;DHT22;10246;50.620;7.232;2023-12-14T04:18:45;7.80;35.90
20174;DHT22;10246;50.620;7.232;2023-12-14T04:21:12;7.80;36.00
20174;DHT22;10246;50.620;7.232;2023-12-14T04:23:40;7.90;36.10
20174;DHT22;10246;50.620;7.232;2023-12-14T04:26:07;7.90;37.00
20174;DHT22;10246;50.620;7.232;2023-12-14T04:28:35;7.90;36.00
20174;DHT22;10246;50.620;7.232;2023-12-14T04:31:01;7.80;35.90
20174;DHT22;10246;50.620;7.232;2023-12-14T04:33:28;7.90;36.20
20174;DHT22;10246;50.620;7.232;2023-12-14T04:35:55;7.90;36.50
20174;DHT22;10246;50.620;7.232;2023-12-14T04:38:21;7.90;36.20
20174;DHT22;10246;50.620;7.232;2023-12-14T04:40:49;7.90;36.50
20174;DHT22;10246;50.620;7.232;2023-12-14T04:43:16;7.90;36.50
20174;DHT22;10246;50.620;7.232;2023-12-14T04:45:43;8.00;36.50
20174;DHT22;10246;50.620;7.232;2023-12-14T04:48:09;8.10;37.00
20174;DHT22;10246;50.620;7.232;2023-12-14T04:50:36;8.20;37.00
20174;DHT22;10246;50.620;7.232;2023-12-14T04:53:03;8.30;36.50
20174;DHT22;10246;50.620;7.232;2023-12-14T04:55:30;8.30;36.40
20174;DHT22;10246;50.620;7.232;2023-12-14T04:57:58;8.30;36.50
20174;DHT22;10246;50.620;7.232;2023-12-14T05:00:25;8.40;36.80
20174;DHT22;10246;50.620;7.232;2023-12-14T05:02:51;8.50;36.80
20174;DHT22;10246;50.620;7.232;2023-12-14T05:05:18;8.60;36.50
20174;DHT22;10246;50.620;7.232;2023-12-14T05:07:45;8.70;36.60
20174;DHT22;10246;50.620;7.232;2023-12-14T05:10:12;8.60;36.40
20174;DHT22;10246;50.620;7.232;2023-12-14T05:12:38;8.60;36.70
20174;DHT22;10246;50.620;7.232;2023-12-14T05:15:07;8.60;37.00
20174;DHT22;10246;50.620;7.232;2023-12-14T05:17:34;8.60;37.00
20174;DHT22;10246;50.620;7.232;2023-12-14T05:20:02;8.60;36.90
20174;DHT22;10246;50.620;7.232;2023-12-14T05:22:29;8.60;37.00
20174;DHT22;10246;50.620;7.232;2023-12-14T05:24:56;8.50;37.50
20174;DHT22;10246;50.620;7.232;2023-12-14T05:27:23;8.50;37.30
20174;DHT22;10246;50.620;7.232;2023-12-14T05:29:51;8.50;37.40
20174;DHT22;10246;50.620;7.232;2023-12-14T05:32:19;8.40;37.70
20174;DHT22;10246;50.620;7.232;2023-12-14T05:34:46;8.50;38.20
20174;DHT22;10246;50.620;7.232;2023-12-14T05:37:13;8.50;38.20
20174;DHT22;10246;50.620;7.232;2023-12-14T05:39:41;8.50;38.10
20174;DHT22;10246;50.620;7.232;2023-12-14T05:42:08;8.50;38.10
20174;DHT22;10246;50.620;7.232;2023-12-14T05:44:35;8.50;37.80
20174;DHT22;10246;50.620;7.232;2023-12-14T05:47:02;8.50;37.50
20174;DHT22;10246;50.620;7.232;2023-12-14T05:49:30;8.40;37.00
20174;DHT22;10246;50.620;7.232;2023-12-14T05:51:59;8.40;37.10
20174;DHT22;10246;50.620;7.232;2023-12-14T05:54:26;8.40;36.80
20174;DHT22;10246;50.620;7.232;2023-12-14T05:56:53;8.40;36.70
20174;DHT22;10246;50.620;7.232;2023-12-14T05:59:20;8.30;36.00
20174;DHT22;10246;50.620;7.232;2023-12-14T06:01:46;8.30;36.40
20174;DHT22;10246;50.620;7.232;2023-12-14T06:04:13;8.40;36.80
20174;DHT22;10246;50.620;7.232;2023-12-14T06:06:41;8.40;36.70
20174;DHT22;10246;50.620;7.232;2023-12-14T06:09:08;8.40;36.70
20174;DHT22;10246;50.620;7.232;2023-12-14T06:11:35;8.40;35.90
20174;DHT22;10246;50.620;7.232;2023-12-14T06:14:02;8.40;35.70
20174;DHT22;10246;50.620;7.232;2023-12-14T06:16:29;8.50;35.40
20174;DHT22;10246;50.620;7.232;2023-12-14T06:18:55;8.50;33.80
20174;DHT22;10246;50.620;7.232;2023-12-14T06:21:22;8.40;33.20
20174;DHT22;10246;50.620;7.232;2023-12-14T06:23:52;8.40;33.70
20174;DHT22;10246;50.620;7.232;2023-12-14T06:26:19;8.40;34.00
20174;DHT22;10246;50.620;7.232;2023-12-14T06:28:46;8.40;34.20
20174;DHT22;10246;50.620;7.232;2023-12-14T06:31:13;8.40;34.20
20174;DHT22;10246;50.620;7.232;2023-12-14T06:33:40;8.40;34.20
20174;DHT22;10246;50.620;7.232;2023-12-14T06:36:08;8.40;34.40
20174;DHT22;10246;50.620;7.232;2023-12-14T06:38:38;8.50;34.40
20174;DHT22;10246;50.620;7.232;2023-12-14T06:41:06;8.50;33.50
20174;DHT22;10246;50.620;7.232;2023-12-14T06:43:34;8.40;33.40
20174;DHT22;10246;50.620;7.232;2023-12-14T06:46:01;8.30;33.80
20174;DHT22;10246;50.620;7.232;2023-12-14T06:48:27;8.40;34.80
20174;DHT22;10246;50.620;7.232;2023-12-14T06:50:54;8.40;34.40
20174;DHT22;10246;50.620;7.232;2023-12-14T06:53:21;8.40;34.20
20174;DHT22;10246;50.620;7.232;2023-12-14T06:55:48;8.40;33.60
20174;DHT22;10246;50.620;7.232;2023-12-14T06:58:17;8.40;32.60
20174;DHT22;10246;50.620;7.232;2023-12-14T07:00:44;8.30;31.90
20174;DHT22;10246;50.620;7.232;2023-12-14T07:03:10;8.20;32.60
20174;DHT22;10246;50.620;7.232;2023-12-14T07:05:37;8.30;33.50
20174;DHT22;10246;50.620;7.232;2023-12-14T07:08:05;8.20;33.10
20174;DHT22;10246;50.620;7.232;2023-12-14T07:10:32;8.20;33.60
20174;DHT22;10246;50.620;7.232;2023-12-14T07:12:58;8.20;33.70
20174;DHT22;10246;50.620;7.232;2023-12-14T07:15:26;8.20;34.00
20174;DHT22;10246;50.620;7.232;2023-12-14T07:17:53;8.20;34.20
20174;DHT22;10246;50.620;7.232;2023-12-14T07:20:20;8.20;33.80
20174;DHT22;10246;50.620;7.232;2023-12-14T07:22:48;8.20;33.20
20174;DHT22;10246;50.620;7.232;2023-12-14T07:25:14;8.20;33.60
20174;DHT22;10246;50.620;7.232;2023-12-14T07:27:41;8.10;32.90
20174;DHT22;10246;50.620;7.232;2023-12-14T07:30:09;8.10;33.20
20174;DHT22;10246;50.620;7.232;2023-12-14T07:32:37;8.00;33.20
20174;DHT22;10246;50.620;7.232;2023-12-14T07:35:05;8.00;33.10
20174;DHT22;10246;50.620;7.232;2023-12-14T07:37:32;8.00;33.60
20174;DHT22;10246;50.620;7.232;2023-12-14T07:39:59;8.00;33.10
20174;DHT22;10246;50.620;7.232;2023-12-14T07:42:26;8.00;33.10
20174;DHT22;10246;50.620;7.232;2023-12-14T07:44:53;8.00;32.90
20174;DHT22;10246;50.620;7.232;2023-12-14T07:47:20;8.00;32.30
20174;DHT22;10246;50.620;7.232;2023-12-14T07:49:48;7.90;32.00
20174;DHT22;10246;50.620;7.232;2023-12-14T07:52:15;8.00;32.70
20174;DHT22;10246;50.620;7.232;2023-12-14T07:54:42;8.10;32.50
20174;DHT22;10246;50.620;7.232;2023-12-14T07:57:08;8.00;32.20
20174;DHT22;10246;50.620;7.232;2023-12-14T07:59:35;8.00;33.00
20174;DHT22;10246;50.620;7.232;2023-12-14T08:02:02;8.10;32.20
20174;DHT22;10246;50.620;7.232;2023-12-14T08:04:29;8.00;31.70
20174;DHT22;10246;50.620;7.232;2023-12-14T08:06:58;8.10;31.80
20174;DHT22;10246;50.620;7.232;2023-12-14T08:09:25;8.00;32.30
20174;DHT22;10246;50.620;7.232;2023-12-14T08:11:51;8.10;32.20
20174;DHT22;10246;50.620;7.232;2023-12-14T08:14:18;8.00;31.90
20174;DHT22;10246;50.620;7.232;2023-12-14T08:16:45;8.00;32.40
20174;DHT22;10246;50.620;7.232;2023-12-14T08:19:12;8.00;32.60
20174;DHT22;10246;50.620;7.232;2023-12-14T08:21:39;8.00;32.20
20174;DHT22;10246;50.620;7.232;2023-12-14T08:24:07;8.00;32.20
20174;DHT22;10246;50.620;7.232;2023-12-14T08:26:34;8.00;32.10
20174;DHT22;10246;50.620;7.232;2023-12-14T08:29:01;8.00;31.90
20174;DHT22;10246;50.620;7.232;2023-12-14T08:31:28;8.00;31.70
20174;DHT22;10246;50.620;7.232;2023-12-14T08:33:54;7.90;31.50
20174;DHT22;10246;50.620;7.232;2023-12-14T08:36:21;7.90;32.40
20174;DHT22;10246;50.620;7.232;2023-12-14T08:38:48;7.90;33.00
20174;DHT22;10246;50.620;7.232;2023-12-14T08:41:16;7.80;33.50
20174;DHT22;10246;50.620;7.232;2023-12-14T08:43:43;7.90;34.20
20174;DHT22;10246;50.620;7.232;2023-12-14T08:46:10;7.90;34.30
20174;DHT22;10246;50.620;7.232;2023-12-14T08:48:37;7.90;32.30
20174;DHT22;10246;50.620;7.232;2023-12-14T08:51:04;7.90;32.10
20174;DHT22;10246;50.620;7.232;2023-12-14T08:53:31;7.80;32.70
20174;DHT22;10246;50.620;7.232;2023-12-14T08:55:58;7.80;33.00
20174;DHT22;10246;50.620;7.232;2023-12-14T08:58:26;7.80;33.20
20174;DHT22;10246;50.620;7.232;2023-12-14T09:00:52;7.80;32.90
20174;DHT22;10246;50.620;7.232;2023-12-14T09:03:19;7.80;32.10
20174;DHT22;10246;50.620;7.232;2023-12-14T09:05:46;7.80;32.20
20174;DHT22;10246;50.620;7.232;2023-12-14T09:08:13;7.80;31.50
20174;DHT22;10246;50.620;7.232;2023-12-14T09:10:40;7.80;32.00
20174;DHT22;10246;50.620;7.232;2023-12-14T09:13:07;7.80;31.90
20174;DHT22;10246;50.620;7.232;2023-12-14T09:15:36;7.80;32.30
20174;DHT22;10246;50.620;7.232;2023-12-14T09:18:02;7.90;31.30
20174;DHT22;10246;50.620;7.232;2023-12-14T09:20:29;7.90;30.90
20174;DHT22;10246;50.620;7.232;2023-12-14T09:22:56;7.80;30.80
20174;DHT22;10246;50.620;7.232;2023-12-14T09:25:23;7.80;31.50
20174;DHT22;10246;50.620;7.232;2023-12-14T09:27:50;7.80;31.00
20174;DHT22;10246;50.620;7.232;2023-12-14T09:30:17;7.80;30.80
20174;DHT22;10246;50.620;7.232;2023-12-14T09:32:45;7.80;30.60
20174;DHT22;10246;50.620;7.232;2023-12-14T09:35:11;7.80;30.70
20174;DHT22;10246;50.620;7.232;2023-12-14T09:37:38;7.90;29.30
20174;DHT22;10246;50.620;7.232;2023-12-14T09:40:07;7.80;28.40
20174;DHT22;10246;50.620;7.232;2023-12-14T09:42:37;7.80;28.30
20174;DHT22;10246;50.620;7.232;2023-12-14T09:45:07;7.70;29.00
20174;DHT22;10246;50.620;7.232;2023-12-14T09:47:34;7.70;29.30
20174;DHT22;10246;50.620;7.232;2023-12-14T09:50:03;7.80;29.40
20174;DHT22;10246;50.620;7.232;2023-12-14T09:52:31;7.70;29.80
20174;DHT22;10246;50.620;7.232;2023-12-14T09:54:56;7.70;29.90
20174;DHT22;10246;50.620;7.232;2023-12-14T09:57:23;7.70;30.00
20174;DHT22;10246;50.620;7.232;2023-12-14T09:59:52;7.70;30.40
20174;DHT22;10246;50.620;7.232;2023-12-14T10:02:19;7.70;30.70
20174;DHT22;10246;50.620;7.232;2023-12-14T10:04:46;7.70;30.80
20174;DHT22;10246;50.620;7.232;2023-12-14T10:07:15;7.70;30.90
20174;DHT22;10246;50.620;7.232;2023-12-14T10:09:42;7.70;30.10
20174;DHT22;10246;50.620;7.232;2023-12-14T10:12:09;7.70;30.90
20174;DHT22;10246;50.620;7.232;2023-12-14T10:14:36;7.70;30.80
20174;DHT22;10246;50.620;7.232;2023-12-14T10:17:24;7.70;30.70
20174;DHT22;10246;50.620;7.232;2023-12-14T10:19:57;7.70;30.20
20174;DHT22;10246;50.620;7.232;2023-12-14T10:22:28;7.70;29.70
20174;DHT22;10246;50.620;7.232;2023-12-14T10:24:58;7.70;30.00
20174;DHT22;10246;50.620;7.232;2023-12-14T10:27:26;7.80;30.10
20174;DHT22;10246;50.620;7.232;2023-12-14T10:29:53;7.80;30.00
20174;DHT22;10246;50.620;7.232;2023-12-14T10:32:20;7.80;29.90
20174;DHT22;10246;50.620;7.232;2023-12-14T10:34:47;7.70;29.70
20174;DHT22;10246;50.620;7.232;2023-12-14T10:37:14;7.70;30.20
20174;DHT22;10246;50.620;7.232;2023-12-14T10:39:46;7.70;31.00
20174;DHT22;10246;50.620;7.232;2023-12-14T10:42:18;7.60;31.30
20174;DHT22;10246;50.620;7.232;2023-12-14T10:44:52;7.70;32.00
20174;DHT22;10246;50.620;7.232;2023-12-14T10:47:19;7.70;32.10
20174;DHT22;10246;50.620;7.232;2023-12-14T10:49:49;7.60;31.90
20174;DHT22;10246;50.620;7.232;2023-12-14T10:52:17;7.70;31.70
20174;DHT22;10246;50.620;7.232;2023-12-14T10:54:47;7.60;31.80
20174;DHT22;10246;50.620;7.232;2023-12-14T10:57:16;7.70;31.90
20174;DHT22;10246;50.620;7.232;2023-12-14T10:59:42;7.80;30.40
20174;DHT22;10246;50.620;7.232;2023-12-14T11:02:10;7.70;29.90
20174;DHT22;10246;50.620;7.232;2023-12-14T11:04:53;7.80;30.00
20174;DHT22;10246;50.620;7.232;2023-12-14T11:07:45;7.80;29.50
20174;DHT22;10246;50.620;7.232;2023-12-14T11:10:14;7.60;29.60
20174;DHT22;10246;50.620;7.232;2023-12-14T11:13:00;7.60;29.00
20174;DHT22;10246;50.620;7.232;2023-12-14T11:15:29;7.50;29.00
20174;DHT22;10246;50.620;7.232;2023-12-14T11:18:24;7.50;29.40
20174;DHT22;10246;50.620;7.232;2023-12-14T11:20:54;7.40;28.60
20174;DHT22;10246;50.620;7.232;2023-12-14T11:23:35;7.40;29.00
20174;DHT22;10246;50.620;7.232;2023-12-14T11:26:06;7.40;29.00
20174;DHT22;10246;50.620;7.232;2023-12-14T11:28:36;7.30;29.40
20174;DHT22;10246;50.620;7.232;2023-12-14T11:31:04;7.30;29.80
20174;DHT22;10246;50.620;7.232;2023-12-14T11:33:32;7.30;30.00
20174;DHT22;10246;50.620;7.232;2023-12-14T11:36:01;7.20;30.10
20174;DHT22;10246;50.620;7.232;2023-12-14T11:38:28;7.20;30.00
20174;DHT22;10246;50.620;7.232;2023-12-14T11:40:55;7.20;30.20
20174;DHT22;10246;50.620;7.232;2023-12-14T11:43:24;7.20;29.90
20174;DHT22;10246;50.620;7.232;2023-12-14T11:45:52;7.20;30.00
20174;DHT22;10246;50.620;7.232;2023-12-14T11:48:20;7.10;30.40
20174;DHT22;10246;50.620;7.232;2023-12-14T11:50:47;7.20;31.00
20174;DHT22;10246;50.620;7.232;2023-12-14T11:53:13;7.30;30.90
20174;DHT22;10246;50.620;7.232;2023-12-14T11:55:41;7.30;30.40
20174;DHT22;10246;50.620;7.232;2023-12-14T11:58:09;7.30;29.30
20174;DHT22;10246;50.620;7.232;2023-12-14T12:00:40;7.20;28.90
20174;DHT22;10246;50.620;7.232;2023-12-14T12:03:08;7.20;29.60
20174;DHT22;10246;50.620;7.232;2023-12-14T12:05:36;7.20;30.10
20174;DHT22;10246;50.620;7.232;2023-12-14T12:08:03;7.20;30.10
20174;DHT22;10246;50.620;7.232;2023-12-14T12:10:30;7.30;30.00
20174;DHT22;10246;50.620;7.232;2023-12-14T12:13:01;7.30;29.80
20174;DHT22;10246;50.620;7.232;2023-12-14T12:15:30;7.30;29.70
20174;DHT22;10246;50.620;7.232;2023-12-14T12:17:59;7.30;30.10
20174;DHT22;10246;50.620;7.232;2023-12-14T12:20:26;7.40;29.70
20174;DHT22;10246;50.620;7.232;2023-12-14T12:22:52;7.40;29.70
20174;DHT22;10246;50.620;7.232;2023-12-14T12:25:19;7.40;28.90
20174;DHT22;10246;50.620;7.232;2023-12-14T12:27:47;7.50;28.80
20174;DHT22;10246;50.620;7.232;2023-12-14T12:30:13;7.50;27.20
20174;DHT22;10246;50.620;7.232;2023-12-14T12:32:41;7.40;27.40
20174;DHT22;10246;50.620;7.232;2023-12-14T12:35:10;7.50;27.50
20174;DHT22;10246;50.620;7.232;2023-12-14T12:37:37;7.40;26.80
20174;DHT22;10246;50.620;7.232;2023-12-14T12:40:04;7.50;27.30
20174;DHT22;10246;50.620;7.232;2023-12-14T12:42:31;7.50;26.20
20174;DHT22;10246;50.620;7.232;2023-12-14T12:44:58;7.50;24.70
20174;DHT22;10246;50.620;7.232;2023-12-14T12:47:26;7.40;24.30
20174;DHT22;10246;50.620;7.232;2023-12-14T12:49:52;7.40;24.60
20174;DHT22;10246;50.620;7.232;2023-12-14T12:52:21;7.40;23.50
20174;DHT22;10246;50.620;7.232;2023-12-14T12:54:47;7.50;23.80
20174;DHT22;10246;50.620;7.232;2023-12-14T12:57:14;7.40;23.70
20174;DHT22;10246;50.620;7.232;2023-12-14T12:59:41;7.40;23.50
20174;DHT22;10246;50.620;7.232;2023-12-14T13:02:07;7.40;23.40
20174;DHT22;10246;50.620;7.232;2023-12-14T13:04:34;7.40;24.60
20174;DHT22;10246;50.620;7.232;2023-12-14T13:07:02;7.40;24.30
20174;DHT22;10246;50.620;7.232;2023-12-14T13:09:31;7.30;23.10
20174;DHT22;10246;50.620;7.232;2023-12-14T13:11:57;7.30;23.60
20174;DHT22;10246;50.620;7.232;2023-12-14T13:14:23;7.20;23.90
20174;DHT22;10246;50.620;7.232;2023-12-14T13:16:50;7.20;24.50
20174;DHT22;10246;50.620;7.232;2023-12-14T13:19:17;7.20;24.50
20174;DHT22;10246;50.620;7.232;2023-12-14T13:21:43;7.20;24.50
20174;DHT22;10246;50.620;7.232;2023-12-14T13:24:10;7.30;24.60
20174;DHT22;10246;50.620;7.232;2023-12-14T13:26:38;7.20;24.50
20174;DHT22;10246;50.620;7.232;2023-12-14T13:29:05;7.20;24.50
20174;DHT22;10246;50.620;7.232;2023-12-14T13:31:32;7.20;24.50
20174;DHT22;10246;50.620;7.232;2023-12-14T13:33:59;7.20;24.50
20174;DHT22;10246;50.620;7.232;2023-12-14T13:36:26;7.20;24.30
20174;DHT22;10246;50.620;7.232;2023-12-14T13:38:52;7.20;24.50
20174;DHT22;10246;50.620;7.232;2023-12-14T13:41:19;7.20;24.50
20174;DHT22;10246;50.620;7.232;2023-12-14T13:43:49;7.20;24.10
20174;DHT22;10246;50.620;7.232;2023-12-14T13:46:17;7.20;24.50
20174;DHT22;10246;50.620;7.232;2023-12-14T13:48:44;7.30;23.80
20174;DHT22;10246;50.620;7.232;2023-12-14T13:51:10;7.30;22.90
20174;DHT22;10246;50.620;7.232;2023-12-14T13:53:37;7.30;23.10
20174;DHT22;10246;50.620;7.232;2023-12-14T13:56:04;7.30;22.60
20174;DHT22;10246;50.620;7.232;2023-12-14T13:58:31;7.30;21.80
20174;DHT22;10246;50.620;7.232;2023-12-14T14:01:01;7.30;22.70
20174;DHT22;10246;50.620;7.232;2023-12-14T14:03:28;7.30;23.20
20174;DHT22;10246;50.620;7.232;2023-12-14T14:05:55;7.30;22.80
20174;DHT22;10246;50.620;7.232;2023-12-14T14:08:21;7.30;23.90
20174;DHT22;10246;50.620;7.232;2023-12-14T14:10:48;7.40;23.50
20174;DHT22;10246;50.620;7.232;2023-12-14T14:13:15;7.40;22.30
20174;DHT22;10246;50.620;7.232;2023-12-14T14:15:42;7.40;22.60
20174;DHT22;10246;50.620;7.232;2023-12-14T14:18:09;7.40;22.00
20174;DHT22;10246;50.620;7.232;2023-12-14T14:20:36;7.40;22.00
20174;DHT22;10246;50.620;7.232;2023-12-14T14:23:03;7.30;23.10
20174;DHT22;10246;50.620;7.232;2023-12-14T14:25:30;7.40;22.30
20174;DHT22;10246;50.620;7.232;2023-12-14T14:27:57;7.40;20.40
20174;DHT22;10246;50.620;7.232;2023-12-14T14:30:24;7.40;20.40
20174;DHT22;10246;50.620;7.232;2023-12-14T14:32:53;7.30;21.20
20174;DHT22;10246;50.620;7.232;2023-12-14T14:35:21;7.30;20.40
20174;DHT22;10246;50.620;7.232;2023-12-14T14:37:49;7.20;20.30
20174;DHT22;10246;50.620;7.232;2023-12-14T14:40:18;7.20;20.50
20174;DHT22;10246;50.620;7.232;2023-12-14T14:42:45;7.30;20.50
20174;DHT22;10246;50.620;7.232;2023-12-14T14:45:12;7.30;21.30
20174;DHT22;10246;50.620;7.232;2023-12-14T14:47:41;7.30;19.90
20174;DHT22;10246;50.620;7.232;2023-12-14T14:50:09;7.20;20.60
20174;DHT22;10246;50.620;7.232;2023-12-14T14:52:37;7.20;21.00
20174;DHT22;10246;50.620;7.232;2023-12-14T14:55:04;7.30;20.70
20174;DHT22;10246;50.620;7.232;2023-12-14T14:57:31;7.30;20.40
20174;DHT22;10246;50.620;7.232;2023-12-14T14:59:59;7.20;20.80
20174;DHT22;10246;50.620;7.232;2023-12-14T15:02:26;7.20;21.40
20174;DHT22;10246;50.620;7.232;2023-12-14T15:04:54;7.10;21.70
20174;DHT22;10246;50.620;7.232;2023-12-14T15:07:20;7.10;22.60
20174;DHT22;10246;50.620;7.232;2023-12-14T15:09:48;7.10;23.40
20174;DHT22;10246;50.620;7.232;2023-12-14T15:12:15;7.10;23.10
20174;DHT22;10246;50.620;7.232;2023-12-14T15:14:42;7.20;22.20
20174;DHT22;10246;50.620;7.232;2023-12-14T15:17:09;7.10;22.30
20174;DHT22;10246;50.620;7.232;2023-12-14T15:19:36;7.20;22.80
20174;DHT22;10246;50.620;7.232;2023-12-14T15:22:03;7.20;22.10
20174;DHT22;10246;50.620;7.232;2023-12-14T15:24:30;7.20;22.00
20174;DHT22;10246;50.620;7.232;2023-12-14T15:26:58;7.20;20.50
20174;DHT22;10246;50.620;7.232;2023-12-14T15:29:25;7.10;21.20
20174;DHT22;10246;50.620;7.232;2023-12-14T15:31:52;7.20;22.00
20174;DHT22;10246;50.620;7.232;2023-12-14T15:34:19;7.20;21.40
20174;DHT22;10246;50.620;7.232;2023-12-14T15:36:45;7.10;21.50
20174;DHT22;10246;50.620;7.232;2023-12-14T15:39:13;7.10;22.60
20174;DHT22;10246;50.620;7.232;2023-12-14T15:41:39;7.20;22.00
20174;DHT22;10246;50.620;7.232;2023-12-14T15:44:07;7.20;20.60
20174;DHT22;10246;50.620;7.232;2023-12-14T15:46:34;7.20;19.80